sensor_id;sensor_type;location;lat;lon;timestamp;P1;durP1;ratioP1;P2;durP2;ratioP2
22131;SDS011;11232;51.748;19.390;2023-03-15T00:00:13;1.07;;;1.07;;
22131;SDS011;11232;51.748;19.390;2023-03-15T00:02:39;1.80;;;1.30;;
22131;SDS011;11232;51.748;19.390;2023-03-15T00:05:05;1.20;;;1.10;;
22131;SDS011;11232;51.748;19.390;2023-03-15T00:07:32;2.30;;;1.50;;
22131;SDS011;11232;51.748;19.390;2023-03-15T00:09:58;1.90;;;1.37;;
22131;SDS011;11232;51.748;19.390;2023-03-15T00:12:23;2.80;;;1.40;;
22131;SDS011;11232;51.748;19.390;2023-03-15T00:14:50;1.60;;;1.50;;
22131;SDS011;11232;51.748;19.390;2023-03-15T00:17:16;2.97;;;1.50;;
22131;SDS011;11232;51.748;19.390;2023-03-15T00:19:42;3.47;;;1.70;;
22131;SDS011;11232;51.748;19.390;2023-03-15T00:22:08;1.73;;;1.60;;
22131;SDS011;11232;51.748;19.390;2023-03-15T00:24:34;1.90;;;1.53;;
22131;SDS011;11232;51.748;19.390;2023-03-15T00:27:00;2.27;;;1.70;;
22131;SDS011;11232;51.748;19.390;2023-03-15T00:29:26;1.60;;;1.50;;
22131;SDS011;11232;51.748;19.390;2023-03-15T00:31:52;3.10;;;1.80;;
22131;SDS011;11232;51.748;19.390;2023-03-15T00:34:18;1.87;;;1.70;;
22131;SDS011;11232;51.748;19.390;2023-03-15T00:36:48;2.50;;;1.30;;
22131;SDS011;11232;51.748;19.390;2023-03-15T00:39:14;2.37;;;1.80;;
22131;SDS011;11232;51.748;19.390;2023-03-15T00:41:40;1.90;;;1.57;;
22131;SDS011;11232;51.748;19.390;2023-03-15T00:44:09;3.93;;;1.70;;
22131;SDS011;11232;51.748;19.390;2023-03-15T00:46:35;1.53;;;1.43;;
22131;SDS011;11232;51.748;19.390;2023-03-15T00:49:02;2.40;;;1.50;;
22131;SDS011;11232;51.748;19.390;2023-03-15T00:51:28;2.50;;;1.70;;
22131;SDS011;11232;51.748;19.390;2023-03-15T00:53:54;1.83;;;1.70;;
22131;SDS011;11232;51.748;19.390;2023-03-15T00:56:22;4.40;;;1.73;;
22131;SDS011;11232;51.748;19.390;2023-03-15T00:58:48;3.80;;;1.70;;
22131;SDS011;11232;51.748;19.390;2023-03-15T01:01:15;3.60;;;1.83;;
22131;SDS011;11232;51.748;19.390;2023-03-15T01:03:42;2.77;;;1.73;;
22131;SDS011;11232;51.748;19.390;2023-03-15T01:06:15;2.67;;;1.80;;
22131;SDS011;11232;51.748;19.390;2023-03-15T01:08:41;6.50;;;2.00;;
22131;SDS011;11232;51.748;19.390;2023-03-15T01:11:09;3.10;;;1.90;;
22131;SDS011;11232;51.748;19.390;2023-03-15T01:13:35;2.87;;;1.80;;
22131;SDS011;11232;51.748;19.390;2023-03-15T01:16:02;4.33;;;1.93;;
22131;SDS011;11232;51.748;19.390;2023-03-15T01:18:28;3.27;;;1.93;;
22131;SDS011;11232;51.748;19.390;2023-03-15T01:20:55;3.67;;;1.80;;
22131;SDS011;11232;51.748;19.390;2023-03-15T01:23:21;8.57;;;2.20;;
22131;SDS011;11232;51.748;19.390;2023-03-15T01:25:46;3.33;;;2.20;;
22131;SDS011;11232;51.748;19.390;2023-03-15T01:28:12;5.10;;;2.40;;
22131;SDS011;11232;51.748;19.390;2023-03-15T01:30:38;3.37;;;2.27;;
22131;SDS011;11232;51.748;19.390;2023-03-15T01:33:04;3.67;;;2.60;;
22131;SDS011;11232;51.748;19.390;2023-03-15T01:35:30;7.07;;;3.33;;
22131;SDS011;11232;51.748;19.390;2023-03-15T01:37:56;9.23;;;3.43;;
22131;SDS011;11232;51.748;19.390;2023-03-15T01:40:22;8.53;;;4.50;;
22131;SDS011;11232;51.748;19.390;2023-03-15T01:48:13;8.60;;;4.33;;
22131;SDS011;11232;51.748;19.390;2023-03-15T01:50:39;10.20;;;5.23;;
22131;SDS011;11232;51.748;19.390;2023-03-15T01:53:05;8.77;;;4.40;;
22131;SDS011;11232;51.748;19.390;2023-03-15T01:55:31;11.63;;;4.90;;
22131;SDS011;11232;51.748;19.390;2023-03-15T01:57:57;10.77;;;4.97;;
22131;SDS011;11232;51.748;19.390;2023-03-15T02:00:24;7.77;;;4.67;;
22131;SDS011;11232;51.748;19.390;2023-03-15T02:02:51;11.17;;;4.47;;
22131;SDS011;11232;51.748;19.390;2023-03-15T02:05:19;8.33;;;5.03;;
22131;SDS011;11232;51.748;19.390;2023-03-15T02:07:46;9.40;;;5.10;;
22131;SDS011;11232;51.748;19.390;2023-03-15T02:10:29;11.93;;;5.77;;
22131;SDS011;11232;51.748;19.390;2023-03-15T02:12:56;14.20;;;5.70;;
22131;SDS011;11232;51.748;19.390;2023-03-15T02:15:22;12.17;;;5.87;;
22131;SDS011;11232;51.748;19.390;2023-03-15T02:17:49;13.57;;;6.00;;
22131;SDS011;11232;51.748;19.390;2023-03-15T02:20:37;13.50;;;5.73;;
22131;SDS011;11232;51.748;19.390;2023-03-15T02:23:06;9.17;;;5.57;;
22131;SDS011;11232;51.748;19.390;2023-03-15T02:28:17;16.20;;;6.17;;
22131;SDS011;11232;51.748;19.390;2023-03-15T02:30:44;17.60;;;6.90;;
22131;SDS011;11232;51.748;19.390;2023-03-15T02:33:15;14.27;;;6.67;;
22131;SDS011;11232;51.748;19.390;2023-03-15T02:35:43;11.53;;;5.53;;
22131;SDS011;11232;51.748;19.390;2023-03-15T02:38:09;14.47;;;6.03;;
22131;SDS011;11232;51.748;19.390;2023-03-15T02:40:35;13.40;;;6.27;;
22131;SDS011;11232;51.748;19.390;2023-03-15T02:43:03;12.67;;;5.80;;
22131;SDS011;11232;51.748;19.390;2023-03-15T02:45:30;15.67;;;5.67;;
22131;SDS011;11232;51.748;19.390;2023-03-15T02:47:57;11.73;;;6.10;;
22131;SDS011;11232;51.748;19.390;2023-03-15T02:50:23;16.37;;;6.10;;
22131;SDS011;11232;51.748;19.390;2023-03-15T02:52:49;12.73;;;6.23;;
22131;SDS011;11232;51.748;19.390;2023-03-15T02:55:16;12.97;;;5.50;;
22131;SDS011;11232;51.748;19.390;2023-03-15T02:57:43;14.27;;;5.57;;
22131;SDS011;11232;51.748;19.390;2023-03-15T03:00:09;15.90;;;5.47;;
22131;SDS011;11232;51.748;19.390;2023-03-15T03:02:40;15.87;;;5.60;;
22131;SDS011;11232;51.748;19.390;2023-03-15T03:05:06;11.30;;;5.27;;
22131;SDS011;11232;51.748;19.390;2023-03-15T03:07:32;21.10;;;5.67;;
22131;SDS011;11232;51.748;19.390;2023-03-15T03:09:58;12.07;;;4.80;;
22131;SDS011;11232;51.748;19.390;2023-03-15T03:12:24;8.13;;;4.73;;
22131;SDS011;11232;51.748;19.390;2023-03-15T03:14:50;13.00;;;4.47;;
22131;SDS011;11232;51.748;19.390;2023-03-15T03:17:16;9.93;;;4.43;;
22131;SDS011;11232;51.748;19.390;2023-03-15T03:19:42;17.73;;;4.97;;
22131;SDS011;11232;51.748;19.390;2023-03-15T03:22:09;12.10;;;4.57;;
22131;SDS011;11232;51.748;19.390;2023-03-15T03:24:37;12.10;;;4.20;;
22131;SDS011;11232;51.748;19.390;2023-03-15T03:27:03;11.57;;;4.50;;
22131;SDS011;11232;51.748;19.390;2023-03-15T03:29:29;9.00;;;4.40;;
22131;SDS011;11232;51.748;19.390;2023-03-15T03:31:55;9.20;;;3.80;;
22131;SDS011;11232;51.748;19.390;2023-03-15T03:34:22;13.13;;;4.23;;
22131;SDS011;11232;51.748;19.390;2023-03-15T03:36:48;6.87;;;3.60;;
22131;SDS011;11232;51.748;19.390;2023-03-15T03:39:14;14.70;;;3.40;;
22131;SDS011;11232;51.748;19.390;2023-03-15T03:41:40;10.90;;;3.70;;
22131;SDS011;11232;51.748;19.390;2023-03-15T03:44:06;11.50;;;3.63;;
22131;SDS011;11232;51.748;19.390;2023-03-15T03:46:32;11.20;;;3.87;;
22131;SDS011;11232;51.748;19.390;2023-03-15T03:48:58;8.63;;;3.40;;
22131;SDS011;11232;51.748;19.390;2023-03-15T03:51:24;8.07;;;3.47;;
22131;SDS011;11232;51.748;19.390;2023-03-15T03:53:50;13.37;;;3.60;;
22131;SDS011;11232;51.748;19.390;2023-03-15T03:56:16;12.80;;;3.53;;
22131;SDS011;11232;51.748;19.390;2023-03-15T03:58:42;10.10;;;3.80;;
22131;SDS011;11232;51.748;19.390;2023-03-15T04:01:08;9.73;;;3.60;;
22131;SDS011;11232;51.748;19.390;2023-03-15T04:03:35;6.37;;;3.17;;
22131;SDS011;11232;51.748;19.390;2023-03-15T04:06:01;9.37;;;3.27;;
22131;SDS011;11232;51.748;19.390;2023-03-15T04:08:29;12.73;;;3.67;;
22131;SDS011;11232;51.748;19.390;2023-03-15T04:10:56;11.10;;;3.20;;
22131;SDS011;11232;51.748;19.390;2023-03-15T04:13:22;7.60;;;3.57;;
22131;SDS011;11232;51.748;19.390;2023-03-15T04:15:49;10.20;;;3.40;;
22131;SDS011;11232;51.748;19.390;2023-03-15T04:18:15;12.10;;;3.87;;
22131;SDS011;11232;51.748;19.390;2023-03-15T04:20:41;11.63;;;3.60;;
22131;SDS011;11232;51.748;19.390;2023-03-15T04:23:16;9.17;;;3.43;;
22131;SDS011;11232;51.748;19.390;2023-03-15T04:25:43;10.77;;;3.50;;
22131;SDS011;11232;51.748;19.390;2023-03-15T04:28:12;10.60;;;3.60;;
22131;SDS011;11232;51.748;19.390;2023-03-15T04:30:38;13.07;;;3.83;;
22131;SDS011;11232;51.748;19.390;2023-03-15T04:33:07;9.87;;;3.57;;
22131;SDS011;11232;51.748;19.390;2023-03-15T04:35:34;10.00;;;3.53;;
22131;SDS011;11232;51.748;19.390;2023-03-15T04:38:01;9.00;;;3.83;;
22131;SDS011;11232;51.748;19.390;2023-03-15T04:40:28;12.13;;;4.13;;
22131;SDS011;11232;51.748;19.390;2023-03-15T04:42:54;13.20;;;3.97;;
22131;SDS011;11232;51.748;19.390;2023-03-15T04:45:24;13.20;;;4.20;;
22131;SDS011;11232;51.748;19.390;2023-03-15T04:47:51;12.63;;;4.03;;
22131;SDS011;11232;51.748;19.390;2023-03-15T04:50:18;9.67;;;3.73;;
22131;SDS011;11232;51.748;19.390;2023-03-15T04:52:44;11.10;;;3.57;;
22131;SDS011;11232;51.748;19.390;2023-03-15T04:55:10;13.13;;;4.00;;
22131;SDS011;11232;51.748;19.390;2023-03-15T04:57:36;11.67;;;3.70;;
22131;SDS011;11232;51.748;19.390;2023-03-15T05:00:03;15.60;;;3.80;;
22131;SDS011;11232;51.748;19.390;2023-03-15T05:02:32;10.27;;;3.53;;
22131;SDS011;11232;51.748;19.390;2023-03-15T05:04:59;10.77;;;3.40;;
22131;SDS011;11232;51.748;19.390;2023-03-15T05:07:25;7.60;;;3.57;;
22131;SDS011;11232;51.748;19.390;2023-03-15T05:09:51;11.67;;;4.20;;
22131;SDS011;11232;51.748;19.390;2023-03-15T05:12:17;10.43;;;3.30;;
22131;SDS011;11232;51.748;19.390;2023-03-15T05:14:43;8.50;;;3.20;;
22131;SDS011;11232;51.748;19.390;2023-03-15T05:17:09;8.43;;;3.30;;
22131;SDS011;11232;51.748;19.390;2023-03-15T05:19:35;9.47;;;2.90;;
22131;SDS011;11232;51.748;19.390;2023-03-15T05:22:01;10.77;;;3.50;;
22131;SDS011;11232;51.748;19.390;2023-03-15T05:24:27;9.60;;;3.40;;
22131;SDS011;11232;51.748;19.390;2023-03-15T05:26:53;7.97;;;3.63;;
22131;SDS011;11232;51.748;19.390;2023-03-15T05:29:20;8.47;;;3.07;;
22131;SDS011;11232;51.748;19.390;2023-03-15T05:31:46;12.40;;;3.93;;
22131;SDS011;11232;51.748;19.390;2023-03-15T05:34:12;13.47;;;3.67;;
22131;SDS011;11232;51.748;19.390;2023-03-15T05:36:38;7.10;;;3.50;;
22131;SDS011;11232;51.748;19.390;2023-03-15T05:39:05;15.80;;;4.07;;
22131;SDS011;11232;51.748;19.390;2023-03-15T05:41:32;13.77;;;3.60;;
22131;SDS011;11232;51.748;19.390;2023-03-15T05:43:58;11.50;;;3.60;;
22131;SDS011;11232;51.748;19.390;2023-03-15T05:46:24;9.23;;;3.17;;
22131;SDS011;11232;51.748;19.390;2023-03-15T05:48:50;10.10;;;3.70;;
22131;SDS011;11232;51.748;19.390;2023-03-15T05:51:17;10.30;;;3.43;;
22131;SDS011;11232;51.748;19.390;2023-03-15T05:53:44;10.67;;;3.87;;
22131;SDS011;11232;51.748;19.390;2023-03-15T05:56:10;14.77;;;3.10;;
22131;SDS011;11232;51.748;19.390;2023-03-15T05:58:36;8.80;;;3.23;;
22131;SDS011;11232;51.748;19.390;2023-03-15T06:01:02;10.00;;;3.47;;
22131;SDS011;11232;51.748;19.390;2023-03-15T06:03:29;14.00;;;3.67;;
22131;SDS011;11232;51.748;19.390;2023-03-15T06:05:55;18.70;;;4.13;;
22131;SDS011;11232;51.748;19.390;2023-03-15T06:08:21;10.67;;;3.13;;
22131;SDS011;11232;51.748;19.390;2023-03-15T06:10:47;8.30;;;3.13;;
22131;SDS011;11232;51.748;19.390;2023-03-15T06:13:13;8.93;;;2.93;;
22131;SDS011;11232;51.748;19.390;2023-03-15T06:15:39;7.20;;;3.23;;
22131;SDS011;11232;51.748;19.390;2023-03-15T06:18:05;9.47;;;3.70;;
22131;SDS011;11232;51.748;19.390;2023-03-15T06:20:32;8.53;;;2.43;;
22131;SDS011;11232;51.748;19.390;2023-03-15T06:22:58;10.17;;;3.47;;
22131;SDS011;11232;51.748;19.390;2023-03-15T06:25:24;11.00;;;3.23;;
22131;SDS011;11232;51.748;19.390;2023-03-15T06:27:50;9.73;;;2.93;;
22131;SDS011;11232;51.748;19.390;2023-03-15T06:30:16;7.20;;;2.60;;
22131;SDS011;11232;51.748;19.390;2023-03-15T06:32:42;7.97;;;2.37;;
22131;SDS011;11232;51.748;19.390;2023-03-15T06:35:08;6.83;;;2.60;;
22131;SDS011;11232;51.748;19.390;2023-03-15T06:37:34;12.43;;;2.40;;
22131;SDS011;11232;51.748;19.390;2023-03-15T06:40:02;4.20;;;1.83;;
22131;SDS011;11232;51.748;19.390;2023-03-15T06:42:31;10.60;;;2.60;;
22131;SDS011;11232;51.748;19.390;2023-03-15T06:44:57;9.23;;;2.60;;
22131;SDS011;11232;51.748;19.390;2023-03-15T06:47:23;7.80;;;2.53;;
22131;SDS011;11232;51.748;19.390;2023-03-15T06:49:49;10.17;;;2.30;;
22131;SDS011;11232;51.748;19.390;2023-03-15T06:52:15;18.33;;;5.80;;
22131;SDS011;11232;51.748;19.390;2023-03-15T06:54:41;8.70;;;3.00;;
22131;SDS011;11232;51.748;19.390;2023-03-15T06:57:07;12.63;;;2.80;;
22131;SDS011;11232;51.748;19.390;2023-03-15T06:59:33;9.20;;;2.70;;
22131;SDS011;11232;51.748;19.390;2023-03-15T07:01:59;9.07;;;2.57;;
22131;SDS011;11232;51.748;19.390;2023-03-15T07:04:25;10.00;;;2.73;;
22131;SDS011;11232;51.748;19.390;2023-03-15T07:06:51;10.40;;;2.37;;
22131;SDS011;11232;51.748;19.390;2023-03-15T07:09:17;10.47;;;2.60;;
22131;SDS011;11232;51.748;19.390;2023-03-15T07:11:43;7.80;;;2.97;;
22131;SDS011;11232;51.748;19.390;2023-03-15T07:14:09;14.97;;;2.97;;
22131;SDS011;11232;51.748;19.390;2023-03-15T07:16:35;10.67;;;3.13;;
22131;SDS011;11232;51.748;19.390;2023-03-15T07:19:02;13.57;;;3.17;;
22131;SDS011;11232;51.748;19.390;2023-03-15T07:21:28;7.83;;;2.80;;
22131;SDS011;11232;51.748;19.390;2023-03-15T07:23:54;6.40;;;2.60;;
22131;SDS011;11232;51.748;19.390;2023-03-15T07:26:20;11.47;;;2.93;;
22131;SDS011;11232;51.748;19.390;2023-03-15T07:28:46;8.83;;;3.10;;
22131;SDS011;11232;51.748;19.390;2023-03-15T07:31:12;6.57;;;2.73;;
22131;SDS011;11232;51.748;19.390;2023-03-15T07:33:39;9.70;;;2.70;;
22131;SDS011;11232;51.748;19.390;2023-03-15T07:36:05;7.63;;;3.07;;
22131;SDS011;11232;51.748;19.390;2023-03-15T07:38:32;7.37;;;3.00;;
22131;SDS011;11232;51.748;19.390;2023-03-15T07:41:02;14.17;;;2.80;;
22131;SDS011;11232;51.748;19.390;2023-03-15T07:43:29;10.47;;;2.83;;
22131;SDS011;11232;51.748;19.390;2023-03-15T07:45:55;11.47;;;3.33;;
22131;SDS011;11232;51.748;19.390;2023-03-15T07:48:21;11.10;;;3.87;;
22131;SDS011;11232;51.748;19.390;2023-03-15T07:50:47;21.53;;;7.47;;
22131;SDS011;11232;51.748;19.390;2023-03-15T07:53:13;10.10;;;3.00;;
22131;SDS011;11232;51.748;19.390;2023-03-15T07:55:39;5.90;;;2.87;;
22131;SDS011;11232;51.748;19.390;2023-03-15T07:58:05;11.93;;;3.03;;
22131;SDS011;11232;51.748;19.390;2023-03-15T08:00:31;13.70;;;3.63;;
22131;SDS011;11232;51.748;19.390;2023-03-15T08:02:57;10.70;;;2.93;;
22131;SDS011;11232;51.748;19.390;2023-03-15T08:05:24;11.90;;;2.63;;
22131;SDS011;11232;51.748;19.390;2023-03-15T08:07:49;8.77;;;2.87;;
22131;SDS011;11232;51.748;19.390;2023-03-15T08:10:16;6.90;;;2.37;;
22131;SDS011;11232;51.748;19.390;2023-03-15T08:12:43;7.77;;;2.33;;
22131;SDS011;11232;51.748;19.390;2023-03-15T08:15:09;10.67;;;3.47;;
22131;SDS011;11232;51.748;19.390;2023-03-15T08:17:36;9.33;;;2.63;;
22131;SDS011;11232;51.748;19.390;2023-03-15T08:20:02;8.27;;;2.47;;
22131;SDS011;11232;51.748;19.390;2023-03-15T08:22:29;5.70;;;2.07;;
22131;SDS011;11232;51.748;19.390;2023-03-15T08:24:55;14.30;;;3.23;;
22131;SDS011;11232;51.748;19.390;2023-03-15T08:27:22;13.40;;;2.67;;
22131;SDS011;11232;51.748;19.390;2023-03-15T08:29:48;11.10;;;2.47;;
22131;SDS011;11232;51.748;19.390;2023-03-15T08:32:16;11.43;;;3.63;;
22131;SDS011;11232;51.748;19.390;2023-03-15T08:34:42;9.53;;;2.90;;
22131;SDS011;11232;51.748;19.390;2023-03-15T08:37:11;12.73;;;3.27;;
22131;SDS011;11232;51.748;19.390;2023-03-15T08:39:37;16.63;;;3.00;;
22131;SDS011;11232;51.748;19.390;2023-03-15T08:42:04;9.07;;;2.80;;
22131;SDS011;11232;51.748;19.390;2023-03-15T08:44:30;9.33;;;3.13;;
22131;SDS011;11232;51.748;19.390;2023-03-15T08:46:56;6.17;;;2.47;;
22131;SDS011;11232;51.748;19.390;2023-03-15T08:49:22;11.23;;;3.03;;
22131;SDS011;11232;51.748;19.390;2023-03-15T08:51:48;7.83;;;2.70;;
22131;SDS011;11232;51.748;19.390;2023-03-15T08:54:14;6.93;;;2.57;;
22131;SDS011;11232;51.748;19.390;2023-03-15T08:56:40;12.07;;;2.70;;
22131;SDS011;11232;51.748;19.390;2023-03-15T08:59:07;11.97;;;3.03;;
22131;SDS011;11232;51.748;19.390;2023-03-15T09:01:33;10.87;;;3.07;;
22131;SDS011;11232;51.748;19.390;2023-03-15T09:03:59;7.17;;;2.73;;
22131;SDS011;11232;51.748;19.390;2023-03-15T09:06:25;9.23;;;3.00;;
22131;SDS011;11232;51.748;19.390;2023-03-15T09:08:52;12.50;;;3.37;;
22131;SDS011;11232;51.748;19.390;2023-03-15T09:11:19;6.83;;;2.73;;
22131;SDS011;11232;51.748;19.390;2023-03-15T09:13:45;7.67;;;2.57;;
22131;SDS011;11232;51.748;19.390;2023-03-15T09:16:11;8.23;;;2.80;;
22131;SDS011;11232;51.748;19.390;2023-03-15T09:18:37;8.13;;;2.90;;
22131;SDS011;11232;51.748;19.390;2023-03-15T09:21:04;8.23;;;2.40;;
22131;SDS011;11232;51.748;19.390;2023-03-15T09:23:30;9.33;;;2.70;;
22131;SDS011;11232;51.748;19.390;2023-03-15T09:25:56;9.83;;;2.70;;
22131;SDS011;11232;51.748;19.390;2023-03-15T09:28:22;8.10;;;2.47;;
22131;SDS011;11232;51.748;19.390;2023-03-15T09:30:51;7.03;;;2.47;;
22131;SDS011;11232;51.748;19.390;2023-03-15T09:33:18;7.20;;;2.40;;
22131;SDS011;11232;51.748;19.390;2023-03-15T09:35:44;6.10;;;2.47;;
22131;SDS011;11232;51.748;19.390;2023-03-15T09:38:09;7.10;;;2.30;;
22131;SDS011;11232;51.748;19.390;2023-03-15T09:40:39;7.30;;;2.33;;
22131;SDS011;11232;51.748;19.390;2023-03-15T09:45:58;11.13;;;2.97;;
22131;SDS011;11232;51.748;19.390;2023-03-15T09:50:57;6.97;;;2.30;;
22131;SDS011;11232;51.748;19.390;2023-03-15T09:53:29;9.80;;;2.37;;
22131;SDS011;11232;51.748;19.390;2023-03-15T09:55:57;9.13;;;2.20;;
22131;SDS011;11232;51.748;19.390;2023-03-15T09:58:24;5.20;;;1.80;;
22131;SDS011;11232;51.748;19.390;2023-03-15T10:00:55;5.23;;;1.90;;
22131;SDS011;11232;51.748;19.390;2023-03-15T10:05:54;10.50;;;2.20;;
22131;SDS011;11232;51.748;19.390;2023-03-15T10:08:20;5.18;;;1.63;;
22131;SDS011;11232;51.748;19.390;2023-03-15T10:16:10;5.43;;;1.52;;
22131;SDS011;11232;51.748;19.390;2023-03-15T10:24:03;8.35;;;2.08;;
22131;SDS011;11232;51.748;19.390;2023-03-15T10:26:31;9.45;;;2.10;;
22131;SDS011;11232;51.748;19.390;2023-03-15T10:29:00;6.72;;;2.47;;
22131;SDS011;11232;51.748;19.390;2023-03-15T10:31:29;6.25;;;1.92;;
22131;SDS011;11232;51.748;19.390;2023-03-15T10:33:56;7.47;;;2.00;;
22131;SDS011;11232;51.748;19.390;2023-03-15T10:36:23;6.25;;;2.00;;
22131;SDS011;11232;51.748;19.390;2023-03-15T10:38:49;5.07;;;1.70;;
22131;SDS011;11232;51.748;19.390;2023-03-15T10:44:02;7.90;;;1.90;;
22131;SDS011;11232;51.748;19.390;2023-03-15T10:46:28;6.43;;;2.33;;
22131;SDS011;11232;51.748;19.390;2023-03-15T10:48:56;6.93;;;2.10;;
22131;SDS011;11232;51.748;19.390;2023-03-15T10:51:27;7.13;;;1.90;;
22131;SDS011;11232;51.748;19.390;2023-03-15T10:56:24;5.07;;;1.90;;
22131;SDS011;11232;51.748;19.390;2023-03-15T10:58:51;7.90;;;1.97;;
22131;SDS011;11232;51.748;19.390;2023-03-15T11:03:59;7.27;;;2.00;;
22131;SDS011;11232;51.748;19.390;2023-03-15T11:06:25;8.77;;;2.23;;
22131;SDS011;11232;51.748;19.390;2023-03-15T11:08:52;4.83;;;1.63;;
22131;SDS011;11232;51.748;19.390;2023-03-15T11:11:19;6.97;;;2.00;;
22131;SDS011;11232;51.748;19.390;2023-03-15T11:13:53;7.30;;;1.90;;
22131;SDS011;11232;51.748;19.390;2023-03-15T11:16:20;5.37;;;1.80;;
22131;SDS011;11232;51.748;19.390;2023-03-15T11:21:13;6.37;;;2.17;;
22131;SDS011;11232;51.748;19.390;2023-03-15T11:23:41;8.47;;;2.13;;
22131;SDS011;11232;51.748;19.390;2023-03-15T11:26:11;6.27;;;1.80;;
22131;SDS011;11232;51.748;19.390;2023-03-15T11:28:40;9.33;;;2.50;;
22131;SDS011;11232;51.748;19.390;2023-03-15T11:31:08;7.63;;;2.23;;
22131;SDS011;11232;51.748;19.390;2023-03-15T11:33:40;6.30;;;2.37;;
22131;SDS011;11232;51.748;19.390;2023-03-15T11:36:10;12.67;;;2.17;;
22131;SDS011;11232;51.748;19.390;2023-03-15T11:38:39;5.90;;;2.10;;
22131;SDS011;11232;51.748;19.390;2023-03-15T11:41:19;8.17;;;2.13;;
22131;SDS011;11232;51.748;19.390;2023-03-15T11:43:48;8.43;;;1.93;;
22131;SDS011;11232;51.748;19.390;2023-03-15T11:46:23;7.17;;;2.70;;
22131;SDS011;11232;51.748;19.390;2023-03-15T11:48:51;8.83;;;2.07;;
22131;SDS011;11232;51.748;19.390;2023-03-15T11:51:20;5.53;;;1.87;;
22131;SDS011;11232;51.748;19.390;2023-03-15T11:53:48;4.60;;;2.07;;
22131;SDS011;11232;51.748;19.390;2023-03-15T11:56:24;9.17;;;2.60;;
22131;SDS011;11232;51.748;19.390;2023-03-15T12:01:26;6.53;;;2.33;;
22131;SDS011;11232;51.748;19.390;2023-03-15T12:04:13;4.90;;;2.40;;
22131;SDS011;11232;51.748;19.390;2023-03-15T12:06:38;8.67;;;2.03;;
22131;SDS011;11232;51.748;19.390;2023-03-15T12:09:37;6.67;;;2.50;;
22131;SDS011;11232;51.748;19.390;2023-03-15T12:11:50;7.13;;;2.20;;
22131;SDS011;11232;51.748;19.390;2023-03-15T12:14:21;11.17;;;2.40;;
22131;SDS011;11232;51.748;19.390;2023-03-15T12:16:50;7.30;;;2.40;;
22131;SDS011;11232;51.748;19.390;2023-03-15T12:19:17;4.87;;;1.93;;
22131;SDS011;11232;51.748;19.390;2023-03-15T12:21:54;6.80;;;2.13;;
22131;SDS011;11232;51.748;19.390;2023-03-15T12:24:22;3.23;;;2.20;;
22131;SDS011;11232;51.748;19.390;2023-03-15T12:26:58;8.43;;;2.33;;
22131;SDS011;11232;51.748;19.390;2023-03-15T12:29:25;4.50;;;2.07;;
22131;SDS011;11232;51.748;19.390;2023-03-15T12:31:54;7.93;;;1.70;;
22131;SDS011;11232;51.748;19.390;2023-03-15T12:35:03;6.57;;;2.17;;
22131;SDS011;11232;51.748;19.390;2023-03-15T12:39:40;8.43;;;1.80;;
22131;SDS011;11232;51.748;19.390;2023-03-15T12:42:58;5.17;;;2.03;;
22131;SDS011;11232;51.748;19.390;2023-03-15T12:50:53;6.30;;;1.70;;
22131;SDS011;11232;51.748;19.390;2023-03-15T12:52:58;7.90;;;2.10;;
22131;SDS011;11232;51.748;19.390;2023-03-15T12:55:26;3.87;;;1.70;;
22131;SDS011;11232;51.748;19.390;2023-03-15T12:57:53;7.37;;;1.73;;
22131;SDS011;11232;51.748;19.390;2023-03-15T13:00:22;9.77;;;1.90;;
22131;SDS011;11232;51.748;19.390;2023-03-15T13:02:50;6.70;;;1.87;;
22131;SDS011;11232;51.748;19.390;2023-03-15T13:15:22;11.07;;;1.60;;
22131;SDS011;11232;51.748;19.390;2023-03-15T13:17:55;5.43;;;1.83;;
22131;SDS011;11232;51.748;19.390;2023-03-15T13:20:34;7.93;;;1.80;;
22131;SDS011;11232;51.748;19.390;2023-03-15T13:23:13;20.30;;;2.23;;
22131;SDS011;11232;51.748;19.390;2023-03-15T13:25:45;3.57;;;1.67;;
22131;SDS011;11232;51.748;19.390;2023-03-15T13:28:17;5.60;;;1.57;;
22131;SDS011;11232;51.748;19.390;2023-03-15T13:30:46;6.90;;;2.27;;
22131;SDS011;11232;51.748;19.390;2023-03-15T13:33:22;4.23;;;1.63;;
22131;SDS011;11232;51.748;19.390;2023-03-15T13:35:56;5.57;;;1.90;;
22131;SDS011;11232;51.748;19.390;2023-03-15T13:38:24;6.40;;;1.60;;
22131;SDS011;11232;51.748;19.390;2023-03-15T13:40:51;3.17;;;1.67;;
22131;SDS011;11232;51.748;19.390;2023-03-15T13:43:17;3.77;;;1.50;;
22131;SDS011;11232;51.748;19.390;2023-03-15T13:45:43;7.80;;;1.80;;
22131;SDS011;11232;51.748;19.390;2023-03-15T13:48:10;3.80;;;1.53;;
22131;SDS011;11232;51.748;19.390;2023-03-15T13:50:36;6.90;;;2.00;;
22131;SDS011;11232;51.748;19.390;2023-03-15T13:53:02;4.20;;;1.87;;
22131;SDS011;11232;51.748;19.390;2023-03-15T13:55:31;5.50;;;2.27;;
22131;SDS011;11232;51.748;19.390;2023-03-15T13:57:59;7.40;;;1.80;;
22131;SDS011;11232;51.748;19.390;2023-03-15T14:00:29;4.67;;;2.07;;
22131;SDS011;11232;51.748;19.390;2023-03-15T14:02:59;5.47;;;1.97;;
22131;SDS011;11232;51.748;19.390;2023-03-15T14:05:26;4.13;;;1.87;;
22131;SDS011;11232;51.748;19.390;2023-03-15T14:07:55;5.37;;;1.80;;
22131;SDS011;11232;51.748;19.390;2023-03-15T14:10:32;6.67;;;2.20;;
22131;SDS011;11232;51.748;19.390;2023-03-15T14:13:14;2.67;;;2.03;;
22131;SDS011;11232;51.748;19.390;2023-03-15T14:15:42;4.77;;;1.57;;
22131;SDS011;11232;51.748;19.390;2023-03-15T14:20:39;9.60;;;2.10;;
22131;SDS011;11232;51.748;19.390;2023-03-15T14:23:07;5.13;;;1.93;;
22131;SDS011;11232;51.748;19.390;2023-03-15T14:25:34;7.37;;;2.10;;
22131;SDS011;11232;51.748;19.390;2023-03-15T14:28:01;6.03;;;2.13;;
22131;SDS011;11232;51.748;19.390;2023-03-15T14:30:27;5.60;;;1.70;;
22131;SDS011;11232;51.748;19.390;2023-03-15T14:32:54;7.60;;;1.73;;
22131;SDS011;11232;51.748;19.390;2023-03-15T14:35:22;8.73;;;2.63;;
22131;SDS011;11232;51.748;19.390;2023-03-15T14:40:34;7.20;;;1.90;;
22131;SDS011;11232;51.748;19.390;2023-03-15T14:43:02;6.67;;;2.40;;
22131;SDS011;11232;51.748;19.390;2023-03-15T14:45:29;6.80;;;2.23;;
22131;SDS011;11232;51.748;19.390;2023-03-15T14:47:59;4.17;;;2.17;;
22131;SDS011;11232;51.748;19.390;2023-03-15T14:50:26;5.23;;;1.83;;
22131;SDS011;11232;51.748;19.390;2023-03-15T14:52:53;6.20;;;1.77;;
22131;SDS011;11232;51.748;19.390;2023-03-15T14:55:20;4.67;;;1.73;;
22131;SDS011;11232;51.748;19.390;2023-03-15T14:57:47;5.30;;;2.10;;
22131;SDS011;11232;51.748;19.390;2023-03-15T15:00:17;7.40;;;1.93;;
22131;SDS011;11232;51.748;19.390;2023-03-15T15:02:44;7.70;;;2.00;;
22131;SDS011;11232;51.748;19.390;2023-03-15T15:07:40;4.53;;;1.80;;
22131;SDS011;11232;51.748;19.390;2023-03-15T15:10:06;4.97;;;1.90;;
22131;SDS011;11232;51.748;19.390;2023-03-15T15:12:32;3.83;;;1.70;;
22131;SDS011;11232;51.748;19.390;2023-03-15T15:14:58;6.33;;;1.90;;
22131;SDS011;11232;51.748;19.390;2023-03-15T15:17:25;5.13;;;2.03;;
22131;SDS011;11232;51.748;19.390;2023-03-15T15:19:51;3.73;;;1.63;;
22131;SDS011;11232;51.748;19.390;2023-03-15T15:22:17;4.10;;;1.63;;
22131;SDS011;11232;51.748;19.390;2023-03-15T15:24:43;3.27;;;1.50;;
22131;SDS011;11232;51.748;19.390;2023-03-15T15:27:09;7.47;;;1.90;;
22131;SDS011;11232;51.748;19.390;2023-03-15T15:29:35;5.73;;;2.10;;
22131;SDS011;11232;51.748;19.390;2023-03-15T15:32:02;4.57;;;1.93;;
22131;SDS011;11232;51.748;19.390;2023-03-15T15:34:28;8.87;;;1.90;;
22131;SDS011;11232;51.748;19.390;2023-03-15T15:36:58;7.57;;;1.90;;